sensor_id;sensor_type;location;lat;lon;timestamp;temperature;humidity
51567;DHT22;37657;53.182;5.638;2022-07-03T00:01:41;16.30;99.90
51567;DHT22;37657;53.182;5.638;2022-07-03T00:04:07;16.20;99.90
51567;DHT22;37657;53.182;5.638;2022-07-03T00:06:33;16.20;99.90
51567;DHT22;37657;53.182;5.638;2022-07-03T00:09:00;16.10;99.90
51567;DHT22;37657;53.182;5.638;2022-07-03T00:11:27;16.10;99.90
51567;DHT22;37657;53.182;5.638;2022-07-03T00:13:53;16.00;99.90
51567;DHT22;37657;53.182;5.638;2022-07-03T00:16:18;16.00;99.90
51567;DHT22;37657;53.182;5.638;2022-07-03T00:18:44;16.10;99.90
51567;DHT22;37657;53.182;5.638;2022-07-03T00:21:11;16.00;99.90
51567;DHT22;37657;53.182;5.638;2022-07-03T00:23:52;16.10;99.90
51567;DHT22;37657;53.182;5.638;2022-07-03T00:26:21;16.00;99.90
51567;DHT22;37657;53.182;5.638;2022-07-03T00:28:47;15.90;99.90
51567;DHT22;37657;53.182;5.638;2022-07-03T00:31:13;15.80;99.90
51567;DHT22;37657;53.182;5.638;2022-07-03T00:33:39;15.90;99.90
51567;DHT22;37657;53.182;5.638;2022-07-03T00:36:06;15.90;99.90
51567;DHT22;37657;53.182;5.638;2022-07-03T00:38:32;15.80;99.90
51567;DHT22;37657;53.182;5.638;2022-07-03T00:40:59;15.80;99.90
51567;DHT22;37657;53.182;5.638;2022-07-03T00:43:26;15.80;99.90
51567;DHT22;37657;53.182;5.638;2022-07-03T00:45:53;15.80;99.90
51567;DHT22;37657;53.182;5.638;2022-07-03T00:48:19;15.80;99.90
51567;DHT22;37657;53.182;5.638;2022-07-03T00:50:48;15.70;99.90
51567;DHT22;37657;53.182;5.638;2022-07-03T00:53:18;15.70;99.90
51567;DHT22;37657;53.182;5.638;2022-07-03T00:55:47;15.70;99.90
51567;DHT22;37657;53.182;5.638;2022-07-03T00:58:16;15.60;99.90
51567;DHT22;37657;53.182;5.638;2022-07-03T01:00:42;15.50;99.90
51567;DHT22;37657;53.182;5.638;2022-07-03T01:03:14;15.50;99.90
51567;DHT22;37657;53.182;5.638;2022-07-03T01:06:10;15.50;99.90
51567;DHT22;37657;53.182;5.638;2022-07-03T01:11:51;15.40;99.90
51567;DHT22;37657;53.182;5.638;2022-07-03T01:14:43;15.30;99.90
51567;DHT22;37657;53.182;5.638;2022-07-03T01:17:25;15.30;99.90
51567;DHT22;37657;53.182;5.638;2022-07-03T01:20:02;15.20;99.90
51567;DHT22;37657;53.182;5.638;2022-07-03T01:22:37;15.20;99.90
51567;DHT22;37657;53.182;5.638;2022-07-03T01:25:26;15.10;99.90
51567;DHT22;37657;53.182;5.638;2022-07-03T01:27:56;15.10;99.90
51567;DHT22;37657;53.182;5.638;2022-07-03T01:30:23;15.00;99.90
51567;DHT22;37657;53.182;5.638;2022-07-03T01:33:04;14.90;99.90
51567;DHT22;37657;53.182;5.638;2022-07-03T01:35:39;14.90;99.90
51567;DHT22;37657;53.182;5.638;2022-07-03T01:38:07;15.00;99.90
51567;DHT22;37657;53.182;5.638;2022-07-03T01:40:35;14.90;99.90
51567;DHT22;37657;53.182;5.638;2022-07-03T01:43:12;15.00;99.90
51567;DHT22;37657;53.182;5.638;2022-07-03T01:45:43;14.90;99.90
51567;DHT22;37657;53.182;5.638;2022-07-03T01:48:10;14.80;99.90
51567;DHT22;37657;53.182;5.638;2022-07-03T01:50:37;14.90;99.90
51567;DHT22;37657;53.182;5.638;2022-07-03T01:53:06;14.80;99.90
51567;DHT22;37657;53.182;5.638;2022-07-03T01:55:33;14.90;99.90
51567;DHT22;37657;53.182;5.638;2022-07-03T01:58:00;14.80;99.90
51567;DHT22;37657;53.182;5.638;2022-07-03T02:00:27;14.90;99.90
51567;DHT22;37657;53.182;5.638;2022-07-03T02:03:04;14.70;99.90
51567;DHT22;37657;53.182;5.638;2022-07-03T02:05:41;14.80;99.90
51567;DHT22;37657;53.182;5.638;2022-07-03T02:11:21;14.90;99.90
51567;DHT22;37657;53.182;5.638;2022-07-03T02:13:55;14.90;99.90
51567;DHT22;37657;53.182;5.638;2022-07-03T02:16:23;14.90;99.90
51567;DHT22;37657;53.182;5.638;2022-07-03T02:19:04;14.90;99.90
51567;DHT22;37657;53.182;5.638;2022-07-03T02:21:31;15.00;99.90
51567;DHT22;37657;53.182;5.638;2022-07-03T02:24:11;14.90;99.90
51567;DHT22;37657;53.182;5.638;2022-07-03T02:26:41;14.80;99.90
51567;DHT22;37657;53.182;5.638;2022-07-03T02:29:12;14.90;99.90
51567;DHT22;37657;53.182;5.638;2022-07-03T02:31:46;14.80;99.90
51567;DHT22;37657;53.182;5.638;2022-07-03T02:34:17;14.90;99.90
51567;DHT22;37657;53.182;5.638;2022-07-03T02:36:49;15.10;99.90
51567;DHT22;37657;53.182;5.638;2022-07-03T02:39:45;15.00;99.90
51567;DHT22;37657;53.182;5.638;2022-07-03T02:45:25;15.10;99.90
51567;DHT22;37657;53.182;5.638;2022-07-03T02:48:05;15.20;99.90
51567;DHT22;37657;53.182;5.638;2022-07-03T02:50:34;15.10;99.90
51567;DHT22;37657;53.182;5.638;2022-07-03T02:53:15;15.10;99.90
51567;DHT22;37657;53.182;5.638;2022-07-03T02:55:46;15.30;99.90
51567;DHT22;37657;53.182;5.638;2022-07-03T02:58:31;15.20;99.90
51567;DHT22;37657;53.182;5.638;2022-07-03T03:01:19;15.40;99.90
51567;DHT22;37657;53.182;5.638;2022-07-03T03:04:07;15.40;99.90
51567;DHT22;37657;53.182;5.638;2022-07-03T03:06:36;15.50;99.90
51567;DHT22;37657;53.182;5.638;2022-07-03T03:09:08;15.30;99.90
51567;DHT22;37657;53.182;5.638;2022-07-03T03:11:44;15.30;99.90
51567;DHT22;37657;53.182;5.638;2022-07-03T03:14:14;15.30;99.90
51567;DHT22;37657;53.182;5.638;2022-07-03T03:16:52;15.30;99.90
51567;DHT22;37657;53.182;5.638;2022-07-03T03:19:22;15.30;99.90
51567;DHT22;37657;53.182;5.638;2022-07-03T03:22:03;15.30;99.90
51567;DHT22;37657;53.182;5.638;2022-07-03T03:24:33;15.30;99.90
51567;DHT22;37657;53.182;5.638;2022-07-03T03:26:59;15.30;99.90
51567;DHT22;37657;53.182;5.638;2022-07-03T03:29:25;15.50;99.90
51567;DHT22;37657;53.182;5.638;2022-07-03T03:31:51;15.50;99.90
51567;DHT22;37657;53.182;5.638;2022-07-03T03:34:17;15.70;99.90
51567;DHT22;37657;53.182;5.638;2022-07-03T03:36:44;15.60;99.90
51567;DHT22;37657;53.182;5.638;2022-07-03T03:39:09;15.70;99.90
51567;DHT22;37657;53.182;5.638;2022-07-03T03:41:35;15.70;99.90
51567;DHT22;37657;53.182;5.638;2022-07-03T03:44:00;15.80;99.90
51567;DHT22;37657;53.182;5.638;2022-07-03T03:46:26;15.90;99.90
51567;DHT22;37657;53.182;5.638;2022-07-03T03:48:52;15.80;99.90
51567;DHT22;37657;53.182;5.638;2022-07-03T03:51:18;15.80;99.90
51567;DHT22;37657;53.182;5.638;2022-07-03T03:53:43;15.90;99.90
51567;DHT22;37657;53.182;5.638;2022-07-03T03:56:11;15.90;99.90
51567;DHT22;37657;53.182;5.638;2022-07-03T03:58:38;15.90;99.90
51567;DHT22;37657;53.182;5.638;2022-07-03T04:01:06;16.00;99.90
51567;DHT22;37657;53.182;5.638;2022-07-03T04:03:33;16.00;99.90
51567;DHT22;37657;53.182;5.638;2022-07-03T04:05:59;16.00;99.90
51567;DHT22;37657;53.182;5.638;2022-07-03T04:08:25;16.10;99.90
51567;DHT22;37657;53.182;5.638;2022-07-03T04:10:52;16.20;99.90
51567;DHT22;37657;53.182;5.638;2022-07-03T04:13:18;16.30;99.90
51567;DHT22;37657;53.182;5.638;2022-07-03T04:15:47;16.20;99.90
51567;DHT22;37657;53.182;5.638;2022-07-03T04:18:13;16.20;99.90
51567;DHT22;37657;53.182;5.638;2022-07-03T04:20:39;16.20;99.90
51567;DHT22;37657;53.182;5.638;2022-07-03T04:23:05;16.20;99.90
51567;DHT22;37657;53.182;5.638;2022-07-03T04:25:31;16.20;99.90
51567;DHT22;37657;53.182;5.638;2022-07-03T04:27:56;16.10;99.90
51567;DHT22;37657;53.182;5.638;2022-07-03T04:30:22;16.00;99.90
51567;DHT22;37657;53.182;5.638;2022-07-03T04:32:48;16.00;99.90
51567;DHT22;37657;53.182;5.638;2022-07-03T04:35:14;16.00;99.90
51567;DHT22;37657;53.182;5.638;2022-07-03T04:37:41;16.00;99.90
51567;DHT22;37657;53.182;5.638;2022-07-03T04:40:07;16.00;99.90
51567;DHT22;37657;53.182;5.638;2022-07-03T04:42:33;16.10;99.90
51567;DHT22;37657;53.182;5.638;2022-07-03T04:44:58;16.10;99.90
51567;DHT22;37657;53.182;5.638;2022-07-03T04:47:24;16.10;99.90
51567;DHT22;37657;53.182;5.638;2022-07-03T04:49:50;16.20;99.90
51567;DHT22;37657;53.182;5.638;2022-07-03T04:52:15;16.30;99.90
51567;DHT22;37657;53.182;5.638;2022-07-03T04:54:43;16.40;99.90
51567;DHT22;37657;53.182;5.638;2022-07-03T04:57:08;16.40;99.90
51567;DHT22;37657;53.182;5.638;2022-07-03T04:59:34;16.50;99.90
51567;DHT22;37657;53.182;5.638;2022-07-03T05:01:59;16.50;99.90
51567;DHT22;37657;53.182;5.638;2022-07-03T05:04:25;16.60;99.90
51567;DHT22;37657;53.182;5.638;2022-07-03T05:06:50;16.70;99.90
51567;DHT22;37657;53.182;5.638;2022-07-03T05:09:16;16.80;99.90
51567;DHT22;37657;53.182;5.638;2022-07-03T05:11:44;16.90;99.90
51567;DHT22;37657;53.182;5.638;2022-07-03T05:14:10;16.90;99.90
51567;DHT22;37657;53.182;5.638;2022-07-03T05:16:35;17.00;99.90
51567;DHT22;37657;53.182;5.638;2022-07-03T05:19:01;17.10;99.90
51567;DHT22;37657;53.182;5.638;2022-07-03T05:21:27;17.20;99.90
51567;DHT22;37657;53.182;5.638;2022-07-03T05:23:53;17.20;99.90
51567;DHT22;37657;53.182;5.638;2022-07-03T05:26:18;17.20;99.90
51567;DHT22;37657;53.182;5.638;2022-07-03T05:28:44;17.40;99.90
51567;DHT22;37657;53.182;5.638;2022-07-03T05:31:09;17.30;99.90
51567;DHT22;37657;53.182;5.638;2022-07-03T05:33:35;17.40;99.90
51567;DHT22;37657;53.182;5.638;2022-07-03T05:36:01;17.50;99.90
51567;DHT22;37657;53.182;5.638;2022-07-03T05:38:27;17.50;99.90
51567;DHT22;37657;53.182;5.638;2022-07-03T05:41:11;17.50;99.90
51567;DHT22;37657;53.182;5.638;2022-07-03T05:43:37;17.60;99.90
51567;DHT22;37657;53.182;5.638;2022-07-03T05:46:02;17.70;99.90
51567;DHT22;37657;53.182;5.638;2022-07-03T05:48:28;17.80;99.90
51567;DHT22;37657;53.182;5.638;2022-07-03T05:50:55;17.80;99.90
51567;DHT22;37657;53.182;5.638;2022-07-03T05:53:20;18.00;99.90
51567;DHT22;37657;53.182;5.638;2022-07-03T05:55:46;18.10;99.90
51567;DHT22;37657;53.182;5.638;2022-07-03T05:58:12;18.10;99.90
51567;DHT22;37657;53.182;5.638;2022-07-03T06:00:37;18.20;99.90
51567;DHT22;37657;53.182;5.638;2022-07-03T06:03:03;18.30;99.90
51567;DHT22;37657;53.182;5.638;2022-07-03T06:05:28;18.20;99.90
51567;DHT22;37657;53.182;5.638;2022-07-03T06:07:54;18.30;99.90
51567;DHT22;37657;53.182;5.638;2022-07-03T06:10:20;18.20;99.90
51567;DHT22;37657;53.182;5.638;2022-07-03T06:12:46;18.20;99.90
51567;DHT22;37657;53.182;5.638;2022-07-03T06:15:11;18.30;99.90
51567;DHT22;37657;53.182;5.638;2022-07-03T06:17:37;18.30;99.90
51567;DHT22;37657;53.182;5.638;2022-07-03T06:20:03;18.40;99.90
51567;DHT22;37657;53.182;5.638;2022-07-03T06:22:29;18.50;99.90
51567;DHT22;37657;53.182;5.638;2022-07-03T06:24:55;18.50;99.90
51567;DHT22;37657;53.182;5.638;2022-07-03T06:27:20;18.60;99.90
51567;DHT22;37657;53.182;5.638;2022-07-03T06:29:47;18.60;99.90
51567;DHT22;37657;53.182;5.638;2022-07-03T06:32:15;18.60;99.90
51567;DHT22;37657;53.182;5.638;2022-07-03T06:34:40;18.70;99.90
51567;DHT22;37657;53.182;5.638;2022-07-03T06:37:08;18.70;99.90
51567;DHT22;37657;53.182;5.638;2022-07-03T06:39:34;18.90;99.90
51567;DHT22;37657;53.182;5.638;2022-07-03T06:42:00;18.90;99.90
51567;DHT22;37657;53.182;5.638;2022-07-03T06:44:25;18.90;99.90
51567;DHT22;37657;53.182;5.638;2022-07-03T06:46:51;19.00;99.90
51567;DHT22;37657;53.182;5.638;2022-07-03T06:49:16;19.10;99.90
51567;DHT22;37657;53.182;5.638;2022-07-03T06:51:42;19.20;99.90
51567;DHT22;37657;53.182;5.638;2022-07-03T06:54:07;19.20;99.90
51567;DHT22;37657;53.182;5.638;2022-07-03T06:56:33;19.30;99.90
51567;DHT22;37657;53.182;5.638;2022-07-03T06:58:58;19.30;99.90
51567;DHT22;37657;53.182;5.638;2022-07-03T07:01:24;19.30;99.90
51567;DHT22;37657;53.182;5.638;2022-07-03T07:03:50;19.40;99.90
51567;DHT22;37657;53.182;5.638;2022-07-03T07:06:15;19.40;99.90
51567;DHT22;37657;53.182;5.638;2022-07-03T07:08:41;19.50;99.90
51567;DHT22;37657;53.182;5.638;2022-07-03T07:11:06;19.50;99.90
51567;DHT22;37657;53.182;5.638;2022-07-03T07:13:32;19.50;99.90
51567;DHT22;37657;53.182;5.638;2022-07-03T07:15:57;19.40;99.90
51567;DHT22;37657;53.182;5.638;2022-07-03T07:18:23;19.40;99.90
51567;DHT22;37657;53.182;5.638;2022-07-03T07:20:49;19.40;99.90
51567;DHT22;37657;53.182;5.638;2022-07-03T07:23:14;19.40;99.90
51567;DHT22;37657;53.182;5.638;2022-07-03T07:25:40;19.40;99.90
51567;DHT22;37657;53.182;5.638;2022-07-03T07:28:05;19.40;99.90
51567;DHT22;37657;53.182;5.638;2022-07-03T07:30:31;19.40;99.90
51567;DHT22;37657;53.182;5.638;2022-07-03T07:32:57;19.50;99.90
51567;DHT22;37657;53.182;5.638;2022-07-03T07:35:22;19.60;99.90
51567;DHT22;37657;53.182;5.638;2022-07-03T07:37:48;19.70;99.90
51567;DHT22;37657;53.182;5.638;2022-07-03T07:40:14;19.80;99.90
51567;DHT22;37657;53.182;5.638;2022-07-03T07:42:39;19.80;99.90
51567;DHT22;37657;53.182;5.638;2022-07-03T07:45:05;19.70;99.90
51567;DHT22;37657;53.182;5.638;2022-07-03T07:47:31;19.50;99.90
51567;DHT22;37657;53.182;5.638;2022-07-03T07:49:56;19.60;99.90
51567;DHT22;37657;53.182;5.638;2022-07-03T07:52:22;19.50;99.90
51567;DHT22;37657;53.182;5.638;2022-07-03T07:54:49;19.60;99.90
51567;DHT22;37657;53.182;5.638;2022-07-03T07:57:15;19.60;99.90
51567;DHT22;37657;53.182;5.638;2022-07-03T07:59:41;19.60;99.90
51567;DHT22;37657;53.182;5.638;2022-07-03T08:02:06;19.50;99.90
51567;DHT22;37657;53.182;5.638;2022-07-03T08:04:50;19.70;99.90
51567;DHT22;37657;53.182;5.638;2022-07-03T08:07:34;19.80;99.90
51567;DHT22;37657;53.182;5.638;2022-07-03T08:10:00;19.90;99.90
51567;DHT22;37657;53.182;5.638;2022-07-03T08:12:26;19.90;99.90
51567;DHT22;37657;53.182;5.638;2022-07-03T08:14:51;20.00;99.90
51567;DHT22;37657;53.182;5.638;2022-07-03T08:17:17;20.10;99.90
51567;DHT22;37657;53.182;5.638;2022-07-03T08:19:42;19.90;99.90
51567;DHT22;37657;53.182;5.638;2022-07-03T08:22:08;19.90;99.90
51567;DHT22;37657;53.182;5.638;2022-07-03T08:24:34;20.00;99.90
51567;DHT22;37657;53.182;5.638;2022-07-03T08:26:59;20.10;99.90
51567;DHT22;37657;53.182;5.638;2022-07-03T08:29:25;20.30;99.90
51567;DHT22;37657;53.182;5.638;2022-07-03T08:31:51;20.40;99.90
51567;DHT22;37657;53.182;5.638;2022-07-03T08:34:16;20.50;99.90
51567;DHT22;37657;53.182;5.638;2022-07-03T08:36:42;20.50;99.90
51567;DHT22;37657;53.182;5.638;2022-07-03T08:39:08;20.70;99.90
51567;DHT22;37657;53.182;5.638;2022-07-03T08:41:36;20.80;99.90
51567;DHT22;37657;53.182;5.638;2022-07-03T08:44:03;21.10;99.90
51567;DHT22;37657;53.182;5.638;2022-07-03T08:46:31;21.30;99.90
51567;DHT22;37657;53.182;5.638;2022-07-03T08:48:59;21.30;99.90
51567;DHT22;37657;53.182;5.638;2022-07-03T08:51:24;21.40;99.90
51567;DHT22;37657;53.182;5.638;2022-07-03T08:53:53;21.40;99.90
51567;DHT22;37657;53.182;5.638;2022-07-03T08:56:20;21.30;99.90
51567;DHT22;37657;53.182;5.638;2022-07-03T08:58:46;21.10;99.90
51567;DHT22;37657;53.182;5.638;2022-07-03T09:01:16;21.00;99.90
51567;DHT22;37657;53.182;5.638;2022-07-03T09:03:42;20.90;99.90
51567;DHT22;37657;53.182;5.638;2022-07-03T09:06:08;20.80;99.90
51567;DHT22;37657;53.182;5.638;2022-07-03T09:08:34;20.80;99.90
51567;DHT22;37657;53.182;5.638;2022-07-03T09:11:01;20.90;99.90
51567;DHT22;37657;53.182;5.638;2022-07-03T09:13:28;20.90;99.90
51567;DHT22;37657;53.182;5.638;2022-07-03T09:15:54;20.80;99.90
51567;DHT22;37657;53.182;5.638;2022-07-03T09:18:37;20.70;99.90
51567;DHT22;37657;53.182;5.638;2022-07-03T09:21:03;20.60;99.90
51567;DHT22;37657;53.182;5.638;2022-07-03T09:23:35;20.50;99.90
51567;DHT22;37657;53.182;5.638;2022-07-03T09:26:03;20.40;99.90
51567;DHT22;37657;53.182;5.638;2022-07-03T09:28:46;20.30;99.90
51567;DHT22;37657;53.182;5.638;2022-07-03T09:31:14;20.20;99.90
51567;DHT22;37657;53.182;5.638;2022-07-03T09:34:06;20.10;99.90
51567;DHT22;37657;53.182;5.638;2022-07-03T09:36:45;20.10;99.90
51567;DHT22;37657;53.182;5.638;2022-07-03T09:39:29;20.10;99.90
51567;DHT22;37657;53.182;5.638;2022-07-03T09:42:07;20.10;99.90
51567;DHT22;37657;53.182;5.638;2022-07-03T09:44:38;20.00;99.90
51567;DHT22;37657;53.182;5.638;2022-07-03T09:47:23;19.80;99.90
51567;DHT22;37657;53.182;5.638;2022-07-03T09:50:00;19.80;99.90
51567;DHT22;37657;53.182;5.638;2022-07-03T09:54:56;20.30;99.90
51567;DHT22;37657;53.182;5.638;2022-07-03T09:57:22;20.60;99.90
51567;DHT22;37657;53.182;5.638;2022-07-03T09:59:48;20.70;99.90
51567;DHT22;37657;53.182;5.638;2022-07-03T10:02:14;20.90;99.90
51567;DHT22;37657;53.182;5.638;2022-07-03T10:04:42;21.10;99.90
51567;DHT22;37657;53.182;5.638;2022-07-03T10:07:08;21.30;99.90
51567;DHT22;37657;53.182;5.638;2022-07-03T10:09:34;21.30;99.90
51567;DHT22;37657;53.182;5.638;2022-07-03T10:12:02;21.30;99.90
51567;DHT22;37657;53.182;5.638;2022-07-03T10:14:32;21.20;99.90
51567;DHT22;37657;53.182;5.638;2022-07-03T10:16:58;21.00;99.90
51567;DHT22;37657;53.182;5.638;2022-07-03T10:19:28;21.00;99.90
51567;DHT22;37657;53.182;5.638;2022-07-03T10:22:01;21.10;99.90
51567;DHT22;37657;53.182;5.638;2022-07-03T10:24:31;21.00;99.90
51567;DHT22;37657;53.182;5.638;2022-07-03T10:26:58;21.00;99.90
51567;DHT22;37657;53.182;5.638;2022-07-03T10:29:26;21.10;99.90
51567;DHT22;37657;53.182;5.638;2022-07-03T10:31:52;21.00;99.90
51567;DHT22;37657;53.182;5.638;2022-07-03T10:34:22;21.00;99.90
51567;DHT22;37657;53.182;5.638;2022-07-03T10:36:53;20.90;99.90
51567;DHT22;37657;53.182;5.638;2022-07-03T10:39:48;20.80;99.90
51567;DHT22;37657;53.182;5.638;2022-07-03T10:42:25;20.70;99.90
51567;DHT22;37657;53.182;5.638;2022-07-03T10:45:14;20.80;99.90
51567;DHT22;37657;53.182;5.638;2022-07-03T10:47:48;20.90;99.90
51567;DHT22;37657;53.182;5.638;2022-07-03T10:50:15;21.10;99.90
51567;DHT22;37657;53.182;5.638;2022-07-03T10:52:44;21.60;99.90
51567;DHT22;37657;53.182;5.638;2022-07-03T10:55:11;21.80;99.90
51567;DHT22;37657;53.182;5.638;2022-07-03T10:57:37;21.80;99.90
51567;DHT22;37657;53.182;5.638;2022-07-03T11:00:14;21.90;99.90
51567;DHT22;37657;53.182;5.638;2022-07-03T11:02:50;22.10;99.90
51567;DHT22;37657;53.182;5.638;2022-07-03T11:05:35;22.10;99.90
51567;DHT22;37657;53.182;5.638;2022-07-03T11:08:05;22.10;99.90
51567;DHT22;37657;53.182;5.638;2022-07-03T11:10:35;22.10;99.90
51567;DHT22;37657;53.182;5.638;2022-07-03T11:13:13;22.10;99.90
51567;DHT22;37657;53.182;5.638;2022-07-03T11:15:50;22.30;99.90
51567;DHT22;37657;53.182;5.638;2022-07-03T11:25:52;21.50;99.90
51567;DHT22;37657;53.182;5.638;2022-07-03T11:33:46;21.10;99.90
51567;DHT22;37657;53.182;5.638;2022-07-03T11:38:45;20.70;99.90
51567;DHT22;37657;53.182;5.638;2022-07-03T11:41:13;21.00;99.90
51567;DHT22;37657;53.182;5.638;2022-07-03T11:43:50;21.40;99.90
51567;DHT22;37657;53.182;5.638;2022-07-03T11:46:20;21.20;99.90
51567;DHT22;37657;53.182;5.638;2022-07-03T11:48:47;21.10;99.90
51567;DHT22;37657;53.182;5.638;2022-07-03T11:51:13;20.70;99.90
51567;DHT22;37657;53.182;5.638;2022-07-03T11:53:39;20.60;99.90
51567;DHT22;37657;53.182;5.638;2022-07-03T11:56:10;20.40;99.90
51567;DHT22;37657;53.182;5.638;2022-07-03T11:58:41;20.40;99.90
51567;DHT22;37657;53.182;5.638;2022-07-03T12:01:28;20.60;99.90
51567;DHT22;37657;53.182;5.638;2022-07-03T12:06:43;21.50;99.90
51567;DHT22;37657;53.182;5.638;2022-07-03T12:09:30;21.90;99.90
51567;DHT22;37657;53.182;5.638;2022-07-03T12:12:03;21.80;99.90
51567;DHT22;37657;53.182;5.638;2022-07-03T12:14:47;21.80;99.90
51567;DHT22;37657;53.182;5.638;2022-07-03T12:17:23;21.90;99.90
51567;DHT22;37657;53.182;5.638;2022-07-03T12:19:57;22.10;99.90
51567;DHT22;37657;53.182;5.638;2022-07-03T12:27:39;21.90;99.90
51567;DHT22;37657;53.182;5.638;2022-07-03T12:30:11;21.70;99.90
51567;DHT22;37657;53.182;5.638;2022-07-03T12:32:38;21.50;99.90
51567;DHT22;37657;53.182;5.638;2022-07-03T12:35:04;21.60;99.90
51567;DHT22;37657;53.182;5.638;2022-07-03T12:37:37;21.50;99.90
51567;DHT22;37657;53.182;5.638;2022-07-03T12:40:06;21.50;99.90
51567;DHT22;37657;53.182;5.638;2022-07-03T12:45:15;21.00;99.90
51567;DHT22;37657;53.182;5.638;2022-07-03T12:47:41;20.90;99.90
51567;DHT22;37657;53.182;5.638;2022-07-03T12:50:08;20.80;99.90
51567;DHT22;37657;53.182;5.638;2022-07-03T12:52:41;20.80;99.90
51567;DHT22;37657;53.182;5.638;2022-07-03T12:55:22;20.80;99.90
51567;DHT22;37657;53.182;5.638;2022-07-03T12:57:48;20.70;99.90
51567;DHT22;37657;53.182;5.638;2022-07-03T13:00:42;20.90;99.90
51567;DHT22;37657;53.182;5.638;2022-07-03T13:03:25;20.80;99.90
51567;DHT22;37657;53.182;5.638;2022-07-03T13:05:51;20.40;99.90
51567;DHT22;37657;53.182;5.638;2022-07-03T13:08:17;20.30;99.90
51567;DHT22;37657;53.182;5.638;2022-07-03T13:10:42;20.20;99.90
51567;DHT22;37657;53.182;5.638;2022-07-03T13:13:08;20.00;99.90
51567;DHT22;37657;53.182;5.638;2022-07-03T13:15:33;19.90;99.90
51567;DHT22;37657;53.182;5.638;2022-07-03T13:18:00;19.90;99.90
51567;DHT22;37657;53.182;5.638;2022-07-03T13:20:31;19.70;99.90
51567;DHT22;37657;53.182;5.638;2022-07-03T13:23:02;19.50;99.90
51567;DHT22;37657;53.182;5.638;2022-07-03T13:25:29;19.40;99.90
51567;DHT22;37657;53.182;5.638;2022-07-03T13:30:31;19.20;99.90
51567;DHT22;37657;53.182;5.638;2022-07-03T13:32:56;19.10;99.90
51567;DHT22;37657;53.182;5.638;2022-07-03T13:35:22;19.20;99.90
51567;DHT22;37657;53.182;5.638;2022-07-03T13:37:47;19.10;99.90
51567;DHT22;37657;53.182;5.638;2022-07-03T13:40:13;19.10;99.90
51567;DHT22;37657;53.182;5.638;2022-07-03T13:42:38;19.00;99.90
51567;DHT22;37657;53.182;5.638;2022-07-03T13:45:04;18.90;99.90
51567;DHT22;37657;53.182;5.638;2022-07-03T13:47:30;18.80;99.90
51567;DHT22;37657;53.182;5.638;2022-07-03T13:49:56;18.60;99.90
51567;DHT22;37657;53.182;5.638;2022-07-03T13:52:21;18.70;99.90
51567;DHT22;37657;53.182;5.638;2022-07-03T13:54:47;18.70;99.90
51567;DHT22;37657;53.182;5.638;2022-07-03T13:57:13;18.70;99.90
51567;DHT22;37657;53.182;5.638;2022-07-03T13:59:39;18.70;99.90
51567;DHT22;37657;53.182;5.638;2022-07-03T14:02:05;18.80;99.90
51567;DHT22;37657;53.182;5.638;2022-07-03T14:04:31;18.80;99.90
51567;DHT22;37657;53.182;5.638;2022-07-03T14:06:57;18.80;99.90
51567;DHT22;37657;53.182;5.638;2022-07-03T14:09:23;18.70;99.90
51567;DHT22;37657;53.182;5.638;2022-07-03T14:11:50;18.80;99.90
51567;DHT22;37657;53.182;5.638;2022-07-03T14:14:15;18.80;99.90
51567;DHT22;37657;53.182;5.638;2022-07-03T14:16:41;18.90;99.90
51567;DHT22;37657;53.182;5.638;2022-07-03T14:19:07;19.00;99.90
51567;DHT22;37657;53.182;5.638;2022-07-03T14:21:33;19.20;99.90
51567;DHT22;37657;53.182;5.638;2022-07-03T14:23:59;19.40;99.90
51567;DHT22;37657;53.182;5.638;2022-07-03T14:26:25;19.60;99.90
51567;DHT22;37657;53.182;5.638;2022-07-03T14:29:09;19.70;99.90
51567;DHT22;37657;53.182;5.638;2022-07-03T14:31:54;19.70;99.90
51567;DHT22;37657;53.182;5.638;2022-07-03T14:34:39;19.70;99.90
51567;DHT22;37657;53.182;5.638;2022-07-03T14:37:04;19.70;99.90
51567;DHT22;37657;53.182;5.638;2022-07-03T14:39:30;19.90;99.90
51567;DHT22;37657;53.182;5.638;2022-07-03T14:41:56;20.10;99.90
51567;DHT22;37657;53.182;5.638;2022-07-03T14:44:21;20.30;99.90
51567;DHT22;37657;53.182;5.638;2022-07-03T14:46:50;20.50;99.90
51567;DHT22;37657;53.182;5.638;2022-07-03T14:49:16;20.40;99.90
51567;DHT22;37657;53.182;5.638;2022-07-03T14:51:43;20.00;99.90
51567;DHT22;37657;53.182;5.638;2022-07-03T14:54:08;19.90;99.90
51567;DHT22;37657;53.182;5.638;2022-07-03T14:56:40;19.80;99.90
51567;DHT22;37657;53.182;5.638;2022-07-03T14:59:09;19.70;99.90
51567;DHT22;37657;53.182;5.638;2022-07-03T15:01:36;19.60;99.90
51567;DHT22;37657;53.182;5.638;2022-07-03T15:04:35;19.50;99.90
51567;DHT22;37657;53.182;5.638;2022-07-03T15:07:01;19.40;99.90
51567;DHT22;37657;53.182;5.638;2022-07-03T15:09:31;19.30;99.90
51567;DHT22;37657;53.182;5.638;2022-07-03T15:12:00;19.40;99.90
51567;DHT22;37657;53.182;5.638;2022-07-03T15:14:48;19.50;99.90
51567;DHT22;37657;53.182;5.638;2022-07-03T15:17:19;19.50;99.90
51567;DHT22;37657;53.182;5.638;2022-07-03T15:19:47;19.60;99.90
51567;DHT22;37657;53.182;5.638;2022-07-03T15:22:14;19.60;99.90
51567;DHT22;37657;53.182;5.638;2022-07-03T15:24:40;19.40;99.90
51567;DHT22;37657;53.182;5.638;2022-07-03T15:27:07;19.30;99.90
51567;DHT22;37657;53.182;5.638;2022-07-03T15:29:35;19.30;99.90
51567;DHT22;37657;53.182;5.638;2022-07-03T15:32:03;19.30;99.90
51567;DHT22;37657;53.182;5.638;2022-07-03T15:34:29;19.40;99.90
51567;DHT22;37657;53.182;5.638;2022-07-03T15:37:26;19.40;99.90
51567;DHT22;37657;53.182;5.638;2022-07-03T15:40:06;19.40;99.90
51567;DHT22;37657;53.182;5.638;2022-07-03T15:45:43;19.20;99.90
51567;DHT22;37657;53.182;5.638;2022-07-03T15:48:23;19.20;99.90
51567;DHT22;37657;53.182;5.638;2022-07-03T15:50:57;19.20;99.90
51567;DHT22;37657;53.182;5.638;2022-07-03T15:53:28;19.10;99.90
51567;DHT22;37657;53.182;5.638;2022-07-03T15:55:58;19.00;99.90
51567;DHT22;37657;53.182;5.638;2022-07-03T15:58:30;19.10;99.90
51567;DHT22;37657;53.182;5.638;2022-07-03T16:00:58;19.10;99.90
51567;DHT22;37657;53.182;5.638;2022-07-03T16:04:08;19.00;99.90
51567;DHT22;37657;53.182;5.638;2022-07-03T16:06:40;19.10;99.90
51567;DHT22;37657;53.182;5.638;2022-07-03T16:09:06;19.20;99.90
51567;DHT22;37657;53.182;5.638;2022-07-03T16:11:34;19.30;99.90
51567;DHT22;37657;53.182;5.638;2022-07-03T16:14:00;19.50;99.90
51567;DHT22;37657;53.182;5.638;2022-07-03T16:16:28;19.60;99.90
51567;DHT22;37657;53.182;5.638;2022-07-03T16:18:55;19.60;99.90
51567;DHT22;37657;53.182;5.638;2022-07-03T16:21:21;19.70;99.90
51567;DHT22;37657;53.182;5.638;2022-07-03T16:23:50;19.50;99.90
51567;DHT22;37657;53.182;5.638;2022-07-03T16:26:16;19.40;99.90
51567;DHT22;37657;53.182;5.638;2022-07-03T16:28:42;19.20;99.90